createdAt,value
2023-01-26T00:01:30.291Z,100851.34
2023-01-26T00:03:58.094Z,100846.41
2023-01-26T00:06:26.026Z,100838.63
2023-01-26T00:08:55.235Z,100844.63
2023-01-26T00:11:27.018Z,100831.13
2023-01-26T00:13:54.142Z,100838.31
2023-01-26T00:16:21.360Z,100830.09
2023-01-26T00:18:48.325Z,100833.38
2023-01-26T00:21:17.765Z,100835.06
2023-01-26T00:23:45.137Z,100841.91
2023-01-26T00:26:15.176Z,100828.97
2023-01-26T00:28:42.834Z,100827.41
2023-01-26T00:31:17.436Z,100825.72
2023-01-26T00:33:44.470Z,100825.72
2023-01-26T00:36:11.667Z,100825.78
2023-01-26T00:38:40.588Z,100828.72
2023-01-26T00:41:09.328Z,100820.41
2023-01-26T00:43:36.241Z,100828.88
2023-01-26T00:46:03.613Z,100822.09
2023-01-26T00:48:30.585Z,100811.22
2023-01-26T00:50:57.629Z,100813.91
2023-01-26T00:53:24.525Z,100804.66
2023-01-26T00:55:56.207Z,100798.81
2023-01-26T00:58:23.275Z,100797.88
2023-01-26T01:00:50.186Z,100795.25
2023-01-26T01:03:17.215Z,100790.28
2023-01-26T01:05:47.408Z,100784.28
2023-01-26T01:08:14.494Z,100777.38
2023-01-26T01:10:41.435Z,100775.69
2023-01-26T01:13:08.405Z,100773.19
2023-01-26T01:18:02.413Z,100772.44
2023-01-26T01:20:30.126Z,100770.00
2023-01-26T01:22:57.049Z,100777.72
2023-01-26T01:25:24.056Z,100773.44
2023-01-26T01:27:51.007Z,100772.38
2023-01-26T01:30:18.205Z,100779.81
2023-01-26T01:32:46.093Z,100774.81
2023-01-26T01:35:13.068Z,100775.09
2023-01-26T01:37:40.163Z,100770.06
2023-01-26T01:40:10.688Z,100773.44
2023-01-26T01:42:38.007Z,100770.06
2023-01-26T01:45:26.412Z,100770.00
2023-01-26T01:47:56.248Z,100770.47
2023-01-26T01:50:24.566Z,100766.16
2023-01-26T01:52:52.472Z,100768.09
2023-01-26T01:55:19.972Z,100759.66
2023-01-26T01:57:53.705Z,100757.13
2023-01-26T02:00:23.927Z,100746.00
2023-01-26T02:03:20.368Z,100748.50
2023-01-26T02:06:11.971Z,100742.28
2023-01-26T02:08:38.986Z,100738.94
2023-01-26T02:11:12.185Z,100739.97
2023-01-26T02:13:40.069Z,100738.56
2023-01-26T02:16:07.339Z,100737.88
2023-01-26T02:18:34.406Z,100740.66
2023-01-26T02:21:07.122Z,100747.50
2023-01-26T02:23:39.088Z,100743.41
2023-01-26T02:26:08.685Z,100731.59
2023-01-26T02:28:35.669Z,100732.22
2023-01-26T02:31:03.961Z,100725.16
2023-01-26T02:33:32.129Z,100713.97
2023-01-26T02:36:05.148Z,100721.50
2023-01-26T02:38:52.035Z,100719.69
2023-01-26T02:41:37.430Z,100706.69
2023-01-26T02:44:05.804Z,100703.09
2023-01-26T02:46:32.842Z,100695.25
2023-01-26T02:49:18.765Z,100696.28
2023-01-26T02:51:45.874Z,100698.84
2023-01-26T02:54:33.027Z,100683.44
2023-01-26T02:57:01.370Z,100689.59
2023-01-26T02:59:28.572Z,100697.38
2023-01-26T03:01:56.632Z,100689.78
2023-01-26T03:04:23.755Z,100690.38
2023-01-26T03:06:50.939Z,100687.69
2023-01-26T03:09:18.102Z,100705.69
2023-01-26T03:11:45.066Z,100711.63
2023-01-26T03:14:13.303Z,100712.50
2023-01-26T03:16:40.855Z,100717.03
2023-01-26T03:19:30.253Z,100711.09
2023-01-26T03:22:16.247Z,100701.09
2023-01-26T03:25:02.009Z,100695.06
2023-01-26T03:27:47.976Z,100699.28
2023-01-26T03:30:18.248Z,100696.81
2023-01-26T03:32:47.138Z,100697.25
2023-01-26T03:35:22.572Z,100701.28
2023-01-26T03:37:55.186Z,100688.56
2023-01-26T03:41:03.208Z,100694.75
2023-01-26T03:43:48.699Z,100687.91
2023-01-26T03:46:34.711Z,100698.25
2023-01-26T03:49:20.327Z,100700.16
2023-01-26T03:52:09.646Z,100695.91
2023-01-26T03:54:55.451Z,100693.13
2023-01-26T03:57:22.566Z,100687.31
2023-01-26T03:59:49.607Z,100683.06
2023-01-26T04:02:38.651Z,100680.44
2023-01-26T04:05:27.610Z,100674.47
2023-01-26T04:08:21.546Z,100675.13
2023-01-26T04:10:51.742Z,100670.38
2023-01-26T04:13:42.130Z,100681.25
2023-01-26T04:16:32.090Z,100682.94
2023-01-26T04:19:17.647Z,100685.13
2023-01-26T04:21:46.085Z,100673.88
2023-01-26T04:24:17.419Z,100681.59
2023-01-26T04:26:46.371Z,100677.47
2023-01-26T04:29:18.202Z,100670.78
2023-01-26T04:31:46.883Z,100664.97
2023-01-26T04:34:17.848Z,100664.97
2023-01-26T04:36:45.039Z,100660.66
2023-01-26T04:39:14.021Z,100665.19
2023-01-26T04:41:45.442Z,100656.06
2023-01-26T04:44:15.161Z,100649.97
2023-01-26T04:46:43.035Z,100653.41
2023-01-26T04:49:12.466Z,100660.94
2023-01-26T04:51:39.874Z,100659.22
2023-01-26T04:54:06.772Z,100657.59
2023-01-26T04:56:38.051Z,100655.97
2023-01-26T04:59:07.430Z,100662.88
2023-01-26T05:01:36.570Z,100655.91
2023-01-26T05:04:07.283Z,100658.91
2023-01-26T05:06:36.147Z,100662.13
2023-01-26T05:09:03.626Z,100666.38
2023-01-26T05:11:32.985Z,100657.94
2023-01-26T05:14:20.313Z,100663.13
2023-01-26T05:16:58.043Z,100659.00
2023-01-26T05:19:45.247Z,100652.31
2023-01-26T05:22:31.004Z,100649.06
2023-01-26T05:25:17.568Z,100656.78
2023-01-26T05:27:55.315Z,100659.34
2023-01-26T05:30:22.426Z,100660.00
2023-01-26T05:32:50.761Z,100665.91
2023-01-26T05:35:17.721Z,100667.66
2023-01-26T05:37:46.447Z,100667.97
2023-01-26T05:40:14.691Z,100674.19
2023-01-26T05:42:43.492Z,100673.38
2023-01-26T05:45:29.368Z,100672.50
2023-01-26T05:48:00.127Z,100669.94
2023-01-26T05:50:27.240Z,100673.97
2023-01-26T05:53:12.539Z,100667.81
2023-01-26T05:55:40.552Z,100676.22
2023-01-26T05:58:07.657Z,100685.53
2023-01-26T06:00:34.925Z,100680.53
2023-01-26T06:03:08.733Z,100679.50
2023-01-26T06:05:35.891Z,100676.72
2023-01-26T06:08:09.244Z,100674.16
2023-01-26T06:10:50.004Z,100671.53
2023-01-26T06:13:24.985Z,100678.16
2023-01-26T06:16:05.910Z,100669.78
2023-01-26T06:18:36.309Z,100685.25
2023-01-26T06:21:03.574Z,100684.38
2023-01-26T06:23:31.010Z,100679.22
2023-01-26T06:26:02.241Z,100682.41
2023-01-26T06:28:31.228Z,100678.91
2023-01-26T06:31:05.738Z,100666.13
2023-01-26T06:33:37.041Z,100672.25
2023-01-26T06:36:06.696Z,100670.50
2023-01-26T06:38:33.950Z,100677.31
2023-01-26T06:41:04.782Z,100673.75
2023-01-26T06:43:36.025Z,100662.56
2023-01-26T06:46:04.376Z,100664.28
2023-01-26T06:48:35.385Z,100667.72
2023-01-26T06:51:16.076Z,100668.81
2023-01-26T06:53:57.716Z,100674.09
2023-01-26T06:56:47.877Z,100661.59
2023-01-26T06:59:28.200Z,100673.81
2023-01-26T07:02:21.871Z,100659.50
2023-01-26T07:04:49.921Z,100653.63
2023-01-26T07:07:17.197Z,100652.03
2023-01-26T07:09:44.607Z,100650.38
2023-01-26T07:12:11.620Z,100649.50
2023-01-26T07:14:38.697Z,100657.50
2023-01-26T07:17:05.783Z,100651.06
2023-01-26T07:19:34.055Z,100650.53
2023-01-26T07:22:01.706Z,100645.56
2023-01-26T07:24:29.295Z,100642.34
2023-01-26T07:26:56.981Z,100644.22
2023-01-26T07:29:24.059Z,100658.91
2023-01-26T07:31:51.774Z,100657.22
2023-01-26T07:34:18.845Z,100655.50
2023-01-26T07:36:46.007Z,100647.06
2023-01-26T07:39:13.096Z,100639.59
2023-01-26T07:41:40.121Z,100640.63
2023-01-26T07:44:29.405Z,100643.31
2023-01-26T07:46:56.541Z,100642.47
2023-01-26T07:49:23.768Z,100634.16
2023-01-26T07:51:52.637Z,100639.47
2023-01-26T07:54:21.635Z,100637.84
2023-01-26T07:56:52.883Z,100639.53
2023-01-26T07:59:19.943Z,100634.56
2023-01-26T08:01:49.473Z,100630.38
2023-01-26T08:04:16.805Z,100624.38
2023-01-26T08:06:43.762Z,100621.97
2023-01-26T08:09:11.540Z,100623.91
2023-01-26T08:11:38.612Z,100620.81
2023-01-26T08:14:05.601Z,100618.56
2023-01-26T08:16:32.768Z,100621.31
2023-01-26T08:19:00.091Z,100619.84
2023-01-26T08:21:27.179Z,100621.03
2023-01-26T08:23:54.283Z,100616.28
2023-01-26T08:26:21.904Z,100606.28
2023-01-26T08:28:49.170Z,100604.75
2023-01-26T08:31:20.762Z,100597.88
2023-01-26T08:33:48.643Z,100608.41
2023-01-26T08:36:16.326Z,100603.38
2023-01-26T08:38:43.971Z,100600.91
2023-01-26T08:41:11.782Z,100603.44
2023-01-26T08:43:39.162Z,100608.31
2023-01-26T08:46:06.859Z,100616.88
2023-01-26T08:48:34.011Z,100611.13
2023-01-26T08:51:02.546Z,100610.25
2023-01-26T08:53:34.484Z,100612.72
2023-01-26T08:56:02.571Z,100605.81
2023-01-26T08:58:29.896Z,100600.81
2023-01-26T09:00:57.053Z,100606.88
2023-01-26T09:03:24.203Z,100601.56
2023-01-26T09:05:51.282Z,100601.34
2023-01-26T09:08:18.391Z,100603.09
2023-01-26T09:10:45.505Z,100597.28
2023-01-26T09:13:12.582Z,100596.66
2023-01-26T09:15:39.596Z,100606.97
2023-01-26T09:18:06.741Z,100599.47
2023-01-26T09:20:33.821Z,100599.66
2023-01-26T09:23:00.761Z,100596.47
2023-01-26T09:25:27.952Z,100599.84
2023-01-26T09:27:54.942Z,100586.28
2023-01-26T09:30:22.424Z,100587.22
2023-01-26T09:32:49.533Z,100591.53
2023-01-26T09:35:17.127Z,100596.66
2023-01-26T09:37:44.805Z,100605.25
2023-01-26T09:40:44.972Z,100592.44
2023-01-26T09:43:25.883Z,100587.28
2023-01-26T09:46:02.223Z,100584.91
2023-01-26T09:48:48.065Z,100591.91
2023-01-26T09:51:23.479Z,100594.56
2023-01-26T09:53:54.786Z,100591.19
2023-01-26T09:56:25.601Z,100579.31
2023-01-26T09:58:58.873Z,100584.53
2023-01-26T10:01:39.385Z,100587.75
2023-01-26T10:04:18.781Z,100585.19
2023-01-26T10:06:46.561Z,100592.13
2023-01-26T10:09:38.274Z,100578.50
2023-01-26T10:12:11.462Z,100581.97
2023-01-26T10:14:41.028Z,100589.16
2023-01-26T10:17:15.005Z,100587.41
2023-01-26T10:19:55.626Z,100590.00
2023-01-26T10:22:30.964Z,100580.66
2023-01-26T10:25:00.009Z,100582.38
2023-01-26T10:27:28.677Z,100574.78
2023-01-26T10:29:55.820Z,100572.22
2023-01-26T10:32:22.988Z,100564.56
2023-01-26T10:34:51.768Z,100567.13
2023-01-26T10:37:29.483Z,100572.31
2023-01-26T10:40:07.624Z,100569.94
2023-01-26T10:42:36.351Z,100573.66
2023-01-26T10:45:23.726Z,100574.56
2023-01-26T10:48:24.467Z,100571.34
2023-01-26T10:50:51.789Z,100580.19
2023-01-26T10:53:24.266Z,100586.31
2023-01-26T10:56:02.523Z,100580.41
2023-01-26T10:58:58.982Z,100586.25
2023-01-26T11:01:28.344Z,100580.97
2023-01-26T11:04:04.763Z,100576.63
2023-01-26T11:06:32.142Z,100571.34
2023-01-26T11:09:15.627Z,100581.84
2023-01-26T11:11:43.603Z,100581.75
2023-01-26T11:14:17.582Z,100569.84
2023-01-26T11:16:54.059Z,100568.28
2023-01-26T11:19:40.158Z,100570.81
2023-01-26T11:22:10.983Z,100563.22
2023-01-26T11:24:43.183Z,100570.97
2023-01-26T11:28:00.509Z,100559.94
2023-01-26T11:30:37.611Z,100559.19
2023-01-26T11:33:13.811Z,100555.72
2023-01-26T11:35:55.829Z,100563.28
2023-01-26T11:38:42.370Z,100559.91
2023-01-26T11:41:46.894Z,100555.63
2023-01-26T11:44:49.096Z,100552.31
2023-01-26T11:47:34.400Z,100547.25
2023-01-26T11:50:35.542Z,100554.03
2023-01-26T11:53:17.447Z,100552.19
2023-01-26T11:56:02.973Z,100543.00
2023-01-26T11:58:37.283Z,100530.84
2023-01-26T12:01:16.603Z,100535.31
2023-01-26T12:03:49.643Z,100531.66
2023-01-26T12:06:32.403Z,100531.53
2023-01-26T12:09:10.564Z,100533.28
2023-01-26T12:12:08.861Z,100535.09
2023-01-26T12:14:45.236Z,100525.72
2023-01-26T12:17:23.560Z,100530.78
2023-01-26T12:20:24.185Z,100522.16
2023-01-26T12:23:17.023Z,100523.59
2023-01-26T12:25:49.624Z,100517.75
2023-01-26T12:28:16.673Z,100510.19
2023-01-26T12:31:02.759Z,100500.19
2023-01-26T12:33:34.220Z,100498.56
2023-01-26T12:36:31.101Z,100494.16
2023-01-26T12:39:01.017Z,100494.28
2023-01-26T12:41:46.732Z,100496.03
2023-01-26T12:44:31.543Z,100488.56
2023-01-26T12:47:09.622Z,100482.06
2023-01-26T12:50:15.877Z,100481.44
2023-01-26T12:52:52.423Z,100474.59
2023-01-26T12:55:26.454Z,100471.00
2023-01-26T12:58:05.848Z,100477.38
2023-01-26T13:00:35.183Z,100473.13
2023-01-26T13:03:15.524Z,100474.16
2023-01-26T13:06:02.120Z,100466.47
2023-01-26T13:08:32.203Z,100467.19
2023-01-26T13:11:00.857Z,100475.75
2023-01-26T13:13:30.334Z,100476.78
2023-01-26T13:16:16.078Z,100477.72
2023-01-26T13:18:49.816Z,100470.16
2023-01-26T13:21:38.150Z,100472.84
2023-01-26T13:24:25.161Z,100469.56
2023-01-26T13:26:59.169Z,100466.84
2023-01-26T13:29:27.397Z,100458.09
2023-01-26T13:32:18.742Z,100467.41
2023-01-26T13:34:50.727Z,100461.22
2023-01-26T13:37:35.060Z,100463.66
2023-01-26T13:40:15.373Z,100467.81
2023-01-26T13:43:14.582Z,100470.34
2023-01-26T13:46:06.407Z,100460.03
2023-01-26T13:48:41.698Z,100455.84
2023-01-26T13:51:12.272Z,100461.66
2023-01-26T13:53:47.645Z,100459.03
2023-01-26T13:56:23.810Z,100463.19
2023-01-26T13:58:52.179Z,100460.63
2023-01-26T14:01:20.422Z,100470.00
2023-01-26T14:03:47.611Z,100469.94
2023-01-26T14:06:22.883Z,100474.91
2023-01-26T14:08:56.285Z,100473.34
2023-01-26T14:11:25.925Z,100473.44
2023-01-26T14:13:56.428Z,100470.88
2023-01-26T14:16:32.584Z,100478.34
2023-01-26T14:19:08.368Z,100475.78
2023-01-26T14:21:55.510Z,100482.78
2023-01-26T14:24:41.566Z,100484.25
2023-01-26T14:27:32.151Z,100492.50
2023-01-26T14:29:59.707Z,100490.69
2023-01-26T14:32:29.665Z,100492.34
2023-01-26T14:34:59.526Z,100491.38
2023-01-26T14:37:27.783Z,100489.78
2023-01-26T14:40:26.096Z,100497.56
2023-01-26T14:42:53.982Z,100494.25
2023-01-26T14:45:31.411Z,100495.22
2023-01-26T14:48:05.529Z,100491.69
2023-01-26T14:50:33.870Z,100495.97
2023-01-26T14:53:02.045Z,100497.69
2023-01-26T14:55:34.644Z,100495.31
2023-01-26T14:58:02.641Z,100498.03
2023-01-26T15:00:33.111Z,100491.16
2023-01-26T15:03:05.065Z,100490.06
2023-01-26T15:05:35.208Z,100488.38
2023-01-26T15:08:03.492Z,100492.81
2023-01-26T15:10:37.881Z,100492.97
2023-01-26T15:13:10.622Z,100492.97
2023-01-26T15:15:39.952Z,100489.53
2023-01-26T15:18:12.948Z,100493.75
2023-01-26T15:20:41.202Z,100498.16
2023-01-26T15:23:29.342Z,100501.41
2023-01-26T15:25:56.813Z,100496.28
2023-01-26T15:28:26.036Z,100497.16
2023-01-26T15:30:55.899Z,100499.66
2023-01-26T15:33:54.393Z,100512.34
2023-01-26T15:36:22.795Z,100500.34
2023-01-26T15:38:49.826Z,100507.13
2023-01-26T15:41:16.789Z,100508.00
2023-01-26T15:43:43.775Z,100505.50
2023-01-26T15:46:10.795Z,100506.34
2023-01-26T15:48:37.852Z,100497.69
2023-01-26T15:51:09.510Z,100496.66
2023-01-26T15:53:36.454Z,100491.34
2023-01-26T15:56:03.674Z,100492.03
2023-01-26T15:58:34.982Z,100492.84
2023-01-26T16:01:02.153Z,100493.78
2023-01-26T16:03:29.422Z,100495.41
2023-01-26T16:05:56.455Z,100496.28
2023-01-26T16:08:23.623Z,100496.28
2023-01-26T16:10:50.805Z,100500.72
2023-01-26T16:13:19.192Z,100495.59
2023-01-26T16:15:56.529Z,100498.16
2023-01-26T16:18:23.637Z,100493.09
2023-01-26T16:20:50.663Z,100493.13
2023-01-26T16:23:19.941Z,100493.25
2023-01-26T16:25:47.676Z,100479.75
2023-01-26T16:28:15.565Z,100484.09
2023-01-26T16:30:44.147Z,100482.63
2023-01-26T16:33:24.940Z,100487.91
2023-01-26T16:35:52.096Z,100493.25
2023-01-26T16:38:19.168Z,100495.94
2023-01-26T16:40:48.060Z,100492.56
2023-01-26T16:43:24.076Z,100502.69
2023-01-26T16:45:52.540Z,100506.06
2023-01-26T16:48:20.316Z,100507.63
2023-01-26T16:50:51.448Z,100502.28
2023-01-26T16:53:22.959Z,100509.06
2023-01-26T16:55:50.061Z,100504.75
2023-01-26T16:58:17.322Z,100505.66
2023-01-26T17:00:44.454Z,100505.66
2023-01-26T17:03:13.237Z,100504.78
2023-01-26T17:05:40.977Z,100502.34
2023-01-26T17:08:08.573Z,100500.53
2023-01-26T17:10:35.790Z,100499.63
2023-01-26T17:13:03.187Z,100503.75
2023-01-26T17:15:31.044Z,100500.25
2023-01-26T17:17:58.217Z,100507.13
2023-01-26T17:20:26.081Z,100508.81
2023-01-26T17:22:54.281Z,100507.88
2023-01-26T17:25:21.729Z,100502.75
2023-01-26T17:27:50.189Z,100505.38
2023-01-26T17:30:18.405Z,100498.66
2023-01-26T17:32:46.030Z,100498.66
2023-01-26T17:35:14.271Z,100501.31
2023-01-26T17:37:41.463Z,100494.66
2023-01-26T17:40:10.603Z,100492.25
2023-01-26T17:42:38.028Z,100495.00
2023-01-26T17:45:06.213Z,100491.50
2023-01-26T17:47:33.996Z,100484.72
2023-01-26T17:50:02.668Z,100495.06
2023-01-26T17:52:32.293Z,100499.41
2023-01-26T17:54:59.523Z,100498.72
2023-01-26T17:57:27.369Z,100508.19
2023-01-26T17:59:55.063Z,100505.78
2023-01-26T18:02:22.344Z,100505.94
2023-01-26T18:04:50.781Z,100508.50
2023-01-26T18:07:21.088Z,100506.84
2023-01-26T18:09:50.413Z,100505.28
2023-01-26T18:12:18.988Z,100508.78
2023-01-26T18:14:55.064Z,100506.06
2023-01-26T18:17:24.298Z,100506.16
2023-01-26T18:19:52.077Z,100502.72
2023-01-26T18:22:22.883Z,100505.16
2023-01-26T18:24:51.753Z,100518.91
2023-01-26T18:27:19.046Z,100520.69
2023-01-26T18:29:49.642Z,100520.69
2023-01-26T18:32:18.138Z,100524.13
2023-01-26T18:34:47.026Z,100530.16
2023-01-26T18:37:15.008Z,100529.34
2023-01-26T18:39:44.317Z,100524.22
2023-01-26T18:42:15.694Z,100525.06
2023-01-26T18:44:44.142Z,100526.03
2023-01-26T18:47:12.010Z,100527.81
2023-01-26T18:49:39.918Z,100532.03
2023-01-26T18:52:08.230Z,100526.78
2023-01-26T18:54:35.808Z,100522.50
2023-01-26T18:57:06.001Z,100521.72
2023-01-26T18:59:33.912Z,100529.41
2023-01-26T19:02:01.084Z,100525.16
2023-01-26T19:04:29.109Z,100531.19
2023-01-26T19:06:56.442Z,100520.03
2023-01-26T19:09:24.941Z,100521.63
2023-01-26T19:11:54.650Z,100522.41
2023-01-26T19:14:22.330Z,100519.81
2023-01-26T19:16:50.967Z,100521.59
2023-01-26T19:19:20.535Z,100525.16
2023-01-26T19:21:47.916Z,100518.38
2023-01-26T19:24:16.789Z,100512.53
2023-01-26T19:26:46.004Z,100511.72
2023-01-26T19:29:13.723Z,100516.03
2023-01-26T19:31:40.984Z,100509.28
2023-01-26T19:34:10.352Z,100502.50
2023-01-26T19:36:37.426Z,100504.25
2023-01-26T19:39:05.187Z,100499.09
2023-01-26T19:41:32.320Z,100505.94
2023-01-26T19:43:59.451Z,100497.25
2023-01-26T19:46:26.590Z,100498.84
2023-01-26T19:48:53.718Z,100505.59
2023-01-26T19:51:25.856Z,100504.56
2023-01-26T19:53:58.507Z,100507.91
2023-01-26T19:56:28.310Z,100507.78
2023-01-26T19:58:57.967Z,100498.34
2023-01-26T20:01:26.844Z,100501.84
2023-01-26T20:03:58.461Z,100506.16
2023-01-26T20:06:28.187Z,100502.72
2023-01-26T20:08:56.693Z,100500.34
2023-01-26T20:11:27.512Z,100504.56
2023-01-26T20:14:01.103Z,100503.63
2023-01-26T20:16:29.776Z,100507.19
2023-01-26T20:19:01.378Z,100501.13
2023-01-26T20:21:29.675Z,100501.94
2023-01-26T20:23:57.898Z,100503.59
2023-01-26T20:26:27.075Z,100500.16
2023-01-26T20:28:58.116Z,100502.00
2023-01-26T20:31:27.326Z,100501.19
2023-01-26T20:33:57.324Z,100511.50
2023-01-26T20:36:28.149Z,100516.84
2023-01-26T20:38:56.415Z,100511.84
2023-01-26T20:41:26.054Z,100520.50
2023-01-26T20:44:00.412Z,100518.06
2023-01-26T20:46:30.509Z,100514.78
2023-01-26T20:48:57.982Z,100516.53
2023-01-26T20:51:29.234Z,100517.44
2023-01-26T20:53:56.565Z,100523.56
2023-01-26T20:56:24.010Z,100524.41
2023-01-26T20:58:55.051Z,100522.50
2023-01-26T21:01:22.916Z,100519.03
2023-01-26T21:03:50.009Z,100513.88
2023-01-26T21:06:21.520Z,100517.28
2023-01-26T21:08:49.805Z,100511.31
2023-01-26T21:11:17.549Z,100513.03
2023-01-26T21:13:45.399Z,100513.97
2023-01-26T21:16:17.317Z,100516.59
2023-01-26T21:18:46.158Z,100507.22
2023-01-26T21:21:14.978Z,100509.88
2023-01-26T21:23:42.047Z,100512.47
2023-01-26T21:26:16.858Z,100511.56
2023-01-26T21:28:44.102Z,100507.34
2023-01-26T21:31:16.342Z,100515.91
2023-01-26T21:33:46.083Z,100510.78
2023-01-26T21:36:15.123Z,100509.09
2023-01-26T21:38:44.844Z,100514.38
2023-01-26T21:41:32.408Z,100514.56
2023-01-26T21:44:01.595Z,100513.78
2023-01-26T21:46:29.126Z,100512.06
2023-01-26T21:48:56.781Z,100517.22
2023-01-26T21:51:42.667Z,100511.16
2023-01-26T21:54:10.093Z,100518.03
2023-01-26T21:56:37.377Z,100510.25
2023-01-26T21:59:08.449Z,100511.94
2023-01-26T22:01:37.533Z,100507.59
2023-01-26T22:04:07.781Z,100508.38
2023-01-26T22:06:35.337Z,100519.47
2023-01-26T22:09:02.567Z,100516.97
2023-01-26T22:11:29.666Z,100518.69
2023-01-26T22:13:56.913Z,100517.00
2023-01-26T22:16:23.970Z,100520.41
2023-01-26T22:18:51.134Z,100516.03
2023-01-26T22:21:18.949Z,100521.09
2023-01-26T22:23:46.796Z,100524.53
2023-01-26T22:26:22.368Z,100530.56
2023-01-26T22:28:53.712Z,100519.34
2023-01-26T22:31:23.117Z,100521.91
2023-01-26T22:33:51.476Z,100520.19
2023-01-26T22:36:18.980Z,100517.63
2023-01-26T22:38:46.691Z,100525.28
2023-01-26T22:41:16.621Z,100523.63
2023-01-26T22:43:43.667Z,100523.75
2023-01-26T22:46:14.229Z,100517.66
2023-01-26T22:48:41.331Z,100524.50
2023-01-26T22:51:22.526Z,100518.38
2023-01-26T22:53:50.688Z,100522.72
2023-01-26T22:56:18.209Z,100518.44
2023-01-26T22:58:58.541Z,100517.63
2023-01-26T23:01:31.464Z,100527.09
2023-01-26T23:03:59.737Z,100526.31
2023-01-26T23:06:27.419Z,100521.09
2023-01-26T23:08:55.442Z,100516.84
2023-01-26T23:11:24.780Z,100519.41
2023-01-26T23:13:53.398Z,100523.66
2023-01-26T23:16:22.965Z,100525.47
2023-01-26T23:18:50.653Z,100520.31
2023-01-26T23:21:17.847Z,100522.03
2023-01-26T23:23:44.904Z,100533.19
2023-01-26T23:26:11.854Z,100523.78
2023-01-26T23:28:40.875Z,100518.53
2023-01-26T23:31:08.546Z,100518.50
2023-01-26T23:33:36.449Z,100519.34
2023-01-26T23:36:05.076Z,100526.19
2023-01-26T23:38:32.393Z,100528.78
2023-01-26T23:41:00.575Z,100523.75
2023-01-26T23:43:28.025Z,100527.25
2023-01-26T23:45:56.815Z,100518.75
2023-01-26T23:48:24.772Z,100518.88
2023-01-26T23:51:03.037Z,100520.56
2023-01-26T23:53:30.835Z,100515.47
2023-01-26T23:55:59.203Z,100512.06
2023-01-26T23:58:26.731Z,100507.88
